Time;durP1;ratioP1;P1;durP2;ratioP2;P2;SDS_P1;SDS_P2;PMS_P1;PMS_P2;Temp;Humidity;BMP_temperature;BMP_pressure;BME280_temperature;BME280_humidity;BME280_pressure;Samples;Min_cycle;Max_cycle;Signal;HPM_P1;HPM_P2
2022/05/15 00:02:09;;;;;;;1.10;0.60;;;15.40;99.90;;;;;;5042881;28;20505;-61
2022/05/15 00:04:36;;;;;;;0.98;0.80;;;15.30;99.90;;;;;;5042096;28;20060;-61
2022/05/15 00:07:04;;;;;;;0.93;0.52;;;15.30;99.90;;;;;;5043830;28;20129;-61
2022/05/15 00:09:31;;;;;;;1.00;0.52;;;15.30;99.90;;;;;;5043779;28;20085;-61
2022/05/15 00:11:58;;;;;;;1.02;0.57;;;15.20;99.90;;;;;;5044229;28;20084;-61
2022/05/15 00:14:25;;;;;;;1.60;0.88;;;15.20;99.90;;;;;;5024864;28;20472;-61
2022/05/15 00:16:52;;;;;;;1.08;0.68;;;15.30;99.90;;;;;;5044081;28;20053;-61
2022/05/15 00:19:18;;;;;;;1.25;0.60;;;15.20;99.90;;;;;;5042490;28;20106;-60
2022/05/15 00:21:45;;;;;;;1.25;0.60;;;15.20;99.90;;;;;;5043714;28;20045;-62
2022/05/15 00:24:12;;;;;;;0.50;0.50;;;15.30;99.90;;;;;;5043170;28;20390;-61
2022/05/15 00:26:39;;;;;;;1.73;0.70;;;15.20;99.90;;;;;;5043588;28;20453;-61
2022/05/15 00:29:05;;;;;;;0.90;0.63;;;15.20;99.90;;;;;;5043070;28;20171;-61
2022/05/15 00:31:32;;;;;;;0.55;0.50;;;15.20;99.90;;;;;;5042676;28;20471;-61
2022/05/15 00:33:59;;;;;;;1.10;0.70;;;15.20;99.90;;;;;;5041592;28;20132;-61
2022/05/15 00:36:26;;;;;;;0.88;0.68;;;15.30;99.90;;;;;;5042709;28;20144;-61
2022/05/15 00:38:53;;;;;;;1.40;0.60;;;15.30;99.90;;;;;;5042927;28;20084;-61
2022/05/15 00:41:20;;;;;;;1.10;0.60;;;15.30;99.90;;;;;;5043039;28;20084;-61
2022/05/15 00:43:51;;;;;;;1.10;0.57;;;15.40;99.90;;;;;;5024274;28;20131;-61
2022/05/15 00:46:23;;;;;;;1.30;0.80;;;15.40;99.90;;;;;;5042763;28;20637;-61
2022/05/15 00:48:50;;;;;;;1.10;0.50;;;15.40;99.90;;;;;;5039547;28;20068;-61
2022/05/15 00:51:28;;;;;;;1.08;0.65;;;15.40;99.90;;;;;;5041115;28;20588;-61
2022/05/15 00:54:05;;;;;;;1.30;0.70;;;15.40;99.90;;;;;;5042454;28;20077;-61
2022/05/15 00:56:33;;;;;;;0.98;0.50;;;15.40;99.90;;;;;;5042404;28;20477;-61
2022/05/15 00:59:03;;;;;;;1.77;0.60;;;15.40;99.90;;;;;;5042555;28;20128;-64
2022/05/15 01:01:30;;;;;;;0.68;0.50;;;15.40;99.90;;;;;;5024940;28;20626;-62
2022/05/15 01:03:57;;;;;;;1.38;0.68;;;15.40;99.90;;;;;;5041123;28;20048;-61
2022/05/15 01:06:23;;;;;;;1.17;0.63;;;15.30;99.90;;;;;;5042484;28;20518;-61
2022/05/15 01:08:50;;;;;;;1.23;0.75;;;15.30;99.90;;;;;;5025022;28;20120;-61
2022/05/15 01:11:18;;;;;;;1.17;0.52;;;15.30;99.90;;;;;;5042506;28;20145;-61
2022/05/15 01:13:45;;;;;;;0.55;0.55;;;15.40;99.90;;;;;;5041801;28;20163;-61
2022/05/15 01:16:13;;;;;;;1.50;0.55;;;15.40;99.90;;;;;;5025165;28;20140;-60
2022/05/15 01:18:39;;;;;;;0.73;0.57;;;15.40;99.90;;;;;;5041326;28;20214;-60
2022/05/15 01:21:28;;;;;;;0.65;0.50;;;15.30;99.90;;;;;;5042002;28;20127;-61
2022/05/15 01:23:55;;;;;;;0.90;0.55;;;15.30;99.90;;;;;;5041881;28;20145;-60
2022/05/15 01:26:22;;;;;;;0.90;0.70;;;15.20;99.90;;;;;;5042482;28;20080;-62
2022/05/15 01:28:49;;;;;;;1.00;0.90;;;15.20;99.90;;;;;;5024273;28;20087;-61
2022/05/15 01:31:16;;;;;;;2.15;0.68;;;15.30;99.90;;;;;;5043236;28;20239;-61
2022/05/15 01:33:46;;;;;;;1.02;0.65;;;15.30;99.90;;;;;;5033624;28;20060;-60
2022/05/15 01:36:13;;;;;;;0.82;0.63;;;15.20;99.90;;;;;;5043639;28;20055;-60
2022/05/15 01:38:39;;;;;;;1.02;0.50;;;15.20;99.90;;;;;;5044136;28;20057;-59
2022/05/15 01:41:07;;;;;;;2.63;1.00;;;15.10;99.90;;;;;;5044417;28;20045;-61
2022/05/15 01:43:34;;;;;;;1.02;0.60;;;15.10;99.90;;;;;;5043458;28;20049;-62
2022/05/15 01:46:00;;;;;;;0.80;0.52;;;15.00;99.90;;;;;;5043747;28;20508;-60
2022/05/15 01:48:29;;;;;;;1.48;0.80;;;15.00;99.90;;;;;;5043759;28;20156;-60
2022/05/15 01:50:56;;;;;;;0.93;0.70;;;15.00;99.90;;;;;;5025396;28;20473;-60
2022/05/15 01:53:23;;;;;;;1.08;0.70;;;15.00;99.90;;;;;;5043886;28;20159;-61
2022/05/15 01:55:50;;;;;;;1.65;0.80;;;14.90;99.90;;;;;;5043581;28;20045;-60
2022/05/15 01:58:16;;;;;;;1.13;0.50;;;14.90;99.90;;;;;;5043497;28;20144;-61
2022/05/15 02:00:43;;;;;;;1.60;0.80;;;14.80;99.90;;;;;;5043334;28;20128;-60
2022/05/15 02:03:10;;;;;;;1.75;0.70;;;14.80;99.90;;;;;;5043241;28;20159;-59
2022/05/15 02:05:37;;;;;;;1.00;0.70;;;14.70;99.90;;;;;;5042374;28;20504;-61
2022/05/15 02:08:05;;;;;;;1.45;0.77;;;14.70;99.90;;;;;;5044192;28;20492;-60
2022/05/15 02:10:32;;;;;;;1.10;0.80;;;14.70;99.90;;;;;;5043321;28;20664;-62
2022/05/15 02:12:59;;;;;;;1.48;0.90;;;14.70;99.90;;;;;;5043708;28;20506;-63
2022/05/15 02:15:26;;;;;;;1.88;1.00;;;14.70;99.90;;;;;;5043009;28;20289;-60
2022/05/15 02:17:52;;;;;;;1.63;0.68;;;14.70;99.90;;;;;;5044063;28;20154;-63
2022/05/15 02:20:19;;;;;;;2.58;0.90;;;14.70;99.90;;;;;;5042401;28;20080;-62
2022/05/15 02:22:46;;;;;;;0.68;0.55;;;14.60;99.90;;;;;;5043878;28;20072;-62
2022/05/15 02:25:13;;;;;;;1.13;0.68;;;14.60;99.90;;;;;;5046844;28;20083;-63
2022/05/15 02:27:41;;;;;;;1.02;0.60;;;14.60;99.90;;;;;;5047512;28;20547;-60
2022/05/15 02:30:08;;;;;;;0.95;0.80;;;14.60;99.90;;;;;;5046432;28;20148;-62
2022/05/15 02:32:35;;;;;;;2.00;0.88;;;14.60;99.90;;;;;;5047590;28;20120;-61
2022/05/15 02:35:02;;;;;;;1.90;0.80;;;14.60;99.90;;;;;;5045797;28;20080;-62
2022/05/15 02:37:28;;;;;;;1.13;0.60;;;14.60;99.90;;;;;;5047556;28;20231;-62
2022/05/15 02:39:55;;;;;;;1.70;0.80;;;14.50;99.90;;;;;;5046976;28;20133;-62
2022/05/15 02:42:22;;;;;;;1.20;0.80;;;14.50;99.90;;;;;;5047639;28;20135;-62
2022/05/15 02:44:48;;;;;;;2.47;0.80;;;14.50;99.90;;;;;;5046451;28;20045;-62
2022/05/15 02:47:15;;;;;;;1.00;0.60;;;14.50;99.90;;;;;;5047298;28;20465;-62
2022/05/15 02:52:42;;;;;;;1.67;0.90;;;14.60;99.90;;;;;;5023824;28;20049;-61
2022/05/15 02:55:09;;;;;;;0.77;0.63;;;14.70;99.90;;;;;;5046684;28;20049;-61
2022/05/15 02:57:39;;;;;;;0.85;0.60;;;14.70;99.90;;;;;;5047053;28;20132;-61
2022/05/15 03:00:09;;;;;;;2.03;1.00;;;14.70;99.90;;;;;;5028427;28;20085;-61
2022/05/15 03:02:39;;;;;;;1.23;0.80;;;14.70;99.90;;;;;;5028829;28;20527;-61
2022/05/15 03:05:06;;;;;;;2.13;0.60;;;14.60;99.90;;;;;;5045351;28;20088;-62
2022/05/15 03:07:33;;;;;;;1.38;0.70;;;14.70;99.90;;;;;;5046418;28;20132;-62
2022/05/15 03:10:00;;;;;;;1.60;0.80;;;14.70;99.90;;;;;;5046489;28;20156;-62
2022/05/15 03:12:26;;;;;;;1.88;0.70;;;14.70;99.90;;;;;;5046799;28;20553;-61
2022/05/15 03:14:53;;;;;;;2.22;0.73;;;14.70;99.90;;;;;;5046026;28;20129;-62
2022/05/15 03:17:21;;;;;;;2.15;1.00;;;14.70;99.90;;;;;;5047042;28;20117;-62
2022/05/15 03:19:47;;;;;;;2.20;0.90;;;14.70;99.90;;;;;;5045431;28;20039;-62
2022/05/15 03:22:14;;;;;;;1.40;0.60;;;14.80;99.90;;;;;;5046261;28;20136;-62
2022/05/15 03:24:41;;;;;;;1.08;0.60;;;14.70;99.90;;;;;;5045992;28;20048;-59
2022/05/15 03:27:07;;;;;;;1.20;0.85;;;14.80;99.90;;;;;;5046697;28;20131;-62
2022/05/15 03:29:35;;;;;;;1.02;0.70;;;14.70;99.90;;;;;;5045751;28;20472;-62
2022/05/15 03:32:01;;;;;;;1.50;0.95;;;14.70;99.90;;;;;;5046526;28;20143;-62
2022/05/15 03:34:28;;;;;;;1.27;0.85;;;14.70;99.90;;;;;;5044337;28;20072;-61
2022/05/15 03:36:55;;;;;;;1.65;0.93;;;14.70;99.90;;;;;;5045643;28;20049;-62
2022/05/15 03:39:22;;;;;;;1.88;1.02;;;14.70;99.90;;;;;;5045705;28;20395;-61
2022/05/15 03:41:49;;;;;;;1.50;0.98;;;14.60;99.90;;;;;;5046427;28;20045;-61
2022/05/15 03:44:16;;;;;;;2.45;1.00;;;14.70;99.90;;;;;;5044929;28;20055;-60
2022/05/15 03:46:43;;;;;;;1.67;1.10;;;14.70;99.90;;;;;;5028581;28;20128;-60
2022/05/15 03:49:13;;;;;;;1.42;0.90;;;14.70;99.90;;;;;;5044569;28;20076;-61
2022/05/15 03:51:40;;;;;;;1.55;0.88;;;14.70;99.90;;;;;;5045700;28;20144;-61
2022/05/15 03:54:07;;;;;;;0.88;0.82;;;14.80;99.90;;;;;;5046080;28;20048;-60
2022/05/15 03:56:52;;;;;;;1.13;0.55;;;14.80;99.90;;;;;;5045834;28;20160;-61
2022/05/15 03:59:23;;;;;;;1.65;0.90;;;14.70;99.90;;;;;;5045152;28;20045;-61
2022/05/15 04:01:50;;;;;;;0.70;0.70;;;14.80;99.90;;;;;;5045583;28;20049;-60
2022/05/15 04:04:17;;;;;;;0.90;0.60;;;14.70;99.90;;;;;;5044267;28;20124;-61
2022/05/15 04:06:43;;;;;;;0.75;0.70;;;14.70;99.90;;;;;;5045499;28;20084;-60
2022/05/15 04:09:10;;;;;;;1.58;0.70;;;14.70;99.90;;;;;;5045348;28;20136;-60
2022/05/15 04:11:37;;;;;;;1.00;0.80;;;14.70;99.90;;;;;;5045668;28;20477;-61
2022/05/15 04:14:04;;;;;;;1.48;0.80;;;14.80;99.90;;;;;;5045007;28;20529;-61
2022/05/15 04:16:30;;;;;;;1.40;0.70;;;14.80;99.90;;;;;;5045150;28;20602;-60
2022/05/15 04:18:57;;;;;;;1.05;0.70;;;14.70;99.90;;;;;;5043920;28;20160;-61
2022/05/15 04:21:24;;;;;;;1.95;0.70;;;14.80;99.90;;;;;;5044952;28;20147;-60
2022/05/15 04:23:51;;;;;;;1.00;0.70;;;14.80;99.90;;;;;;5045254;28;20318;-61
2022/05/15 04:26:18;;;;;;;3.58;0.75;;;14.80;99.90;;;;;;5044922;28;20098;-60
2022/05/15 04:28:45;;;;;;;1.50;0.70;;;14.80;99.90;;;;;;5044595;28;20694;-60
2022/05/15 04:31:12;;;;;;;0.85;0.60;;;14.80;99.90;;;;;;5045293;28;20053;-60
2022/05/15 04:33:39;;;;;;;1.25;0.82;;;14.80;99.90;;;;;;5043929;28;20370;-59
2022/05/15 04:36:06;;;;;;;0.98;0.63;;;14.80;99.90;;;;;;5044698;28;20080;-60
2022/05/15 04:38:32;;;;;;;0.75;0.60;;;14.80;99.90;;;;;;5044690;28;20132;-61
2022/05/15 04:40:59;;;;;;;1.92;0.88;;;14.80;99.90;;;;;;5045088;28;20136;-61
2022/05/15 04:43:26;;;;;;;2.42;0.95;;;14.80;99.90;;;;;;5044828;28;20132;-60
2022/05/15 04:45:52;;;;;;;1.58;0.80;;;14.80;99.90;;;;;;5044822;28;20057;-61
2022/05/15 04:48:19;;;;;;;1.00;0.70;;;14.80;99.90;;;;;;5044061;28;20087;-60
2022/05/15 04:50:46;;;;;;;1.10;0.82;;;14.80;99.90;;;;;;5043549;28;20060;-61
2022/05/15 04:53:12;;;;;;;1.17;0.63;;;14.80;99.90;;;;;;5044863;28;20057;-60
2022/05/15 04:55:39;;;;;;;1.73;0.85;;;14.80;99.90;;;;;;5045027;28;20399;-60
2022/05/15 04:58:06;;;;;;;1.02;0.70;;;14.80;99.90;;;;;;5044663;28;20132;-60
2022/05/15 05:00:33;;;;;;;1.38;0.73;;;14.80;99.90;;;;;;5043966;28;20096;-61
2022/05/15 05:03:00;;;;;;;1.65;0.93;;;14.80;99.90;;;;;;5024748;28;20072;-61
2022/05/15 05:05:26;;;;;;;0.95;0.85;;;14.80;99.90;;;;;;5041782;28;20499;-61
2022/05/15 05:07:53;;;;;;;1.17;0.80;;;14.80;99.90;;;;;;5042860;28;20057;-61
2022/05/15 05:10:20;;;;;;;1.80;0.93;;;14.80;99.90;;;;;;5042440;28;20045;-61
2022/05/15 05:12:47;;;;;;;1.98;1.00;;;14.90;99.90;;;;;;5042623;28;20132;-60
2022/05/15 05:15:14;;;;;;;1.95;0.73;;;14.80;99.90;;;;;;5041468;28;20480;-60
2022/05/15 05:17:41;;;;;;;1.13;0.98;;;14.90;99.90;;;;;;5042708;28;20489;-60
2022/05/15 05:20:09;;;;;;;1.70;1.00;;;14.90;99.90;;;;;;5041590;28;20131;-60
2022/05/15 05:22:35;;;;;;;1.25;0.80;;;14.90;99.90;;;;;;5042527;28;20057;-61
2022/05/15 05:25:02;;;;;;;1.08;0.88;;;14.80;99.90;;;;;;5024411;28;20175;-61
2022/05/15 05:27:29;;;;;;;2.15;1.20;;;14.90;99.90;;;;;;5042495;28;20547;-61
2022/05/15 05:29:56;;;;;;;1.85;1.25;;;14.80;99.90;;;;;;5042179;28;20140;-61
2022/05/15 05:32:23;;;;;;;1.58;0.98;;;14.80;99.90;;;;;;5042621;28;20140;-60
2022/05/15 05:34:50;;;;;;;1.45;1.00;;;14.90;99.90;;;;;;5023345;28;20132;-60
2022/05/15 05:37:17;;;;;;;1.30;0.80;;;14.90;99.90;;;;;;5042218;28;20171;-61
2022/05/15 05:39:44;;;;;;;0.98;0.70;;;14.90;99.90;;;;;;5041748;28;20052;-61
2022/05/15 05:42:11;;;;;;;1.63;0.75;;;14.90;99.90;;;;;;5042966;28;20168;-60
2022/05/15 05:44:38;;;;;;;1.65;1.05;;;15.00;99.90;;;;;;5041672;28;20132;-61
2022/05/15 05:47:05;;;;;;;1.75;1.05;;;15.00;99.90;;;;;;5042145;28;20084;-59
2022/05/15 05:49:32;;;;;;;1.42;0.90;;;15.10;99.90;;;;;;5040772;28;20507;-61
2022/05/15 05:51:58;;;;;;;2.80;1.00;;;15.20;99.90;;;;;;5041613;28;20095;-61
2022/05/15 05:54:25;;;;;;;1.33;1.00;;;15.20;99.90;;;;;;5041247;28;20048;-59
2022/05/15 05:56:52;;;;;;;1.73;1.05;;;15.30;99.90;;;;;;5024833;28;20140;-61
2022/05/15 05:59:19;;;;;;;1.50;1.05;;;15.30;99.90;;;;;;5044641;28;20448;-61
2022/05/15 06:01:45;;;;;;;2.25;1.40;;;15.30;99.90;;;;;;5046430;28;20067;-60
2022/05/15 06:06:57;;;;;;;1.63;0.80;;;15.40;99.90;;;;;;5046213;28;20302;-60
2022/05/15 06:09:24;;;;;;;1.98;1.10;;;15.40;99.90;;;;;;5046500;28;20417;-60
2022/05/15 06:11:51;;;;;;;2.45;0.90;;;15.40;99.90;;;;;;5046300;28;20082;-61
2022/05/15 06:14:17;;;;;;;1.67;0.95;;;15.40;99.90;;;;;;5045259;28;20139;-60
2022/05/15 06:16:44;;;;;;;1.92;1.17;;;15.40;99.90;;;;;;5046017;28;20544;-61
2022/05/15 06:19:11;;;;;;;2.42;1.27;;;15.40;99.90;;;;;;5045170;28;20080;-60
2022/05/15 06:21:38;;;;;;;2.35;1.50;;;15.40;99.90;;;;;;5045650;28;20081;-61
2022/05/15 06:24:05;;;;;;;2.05;1.45;;;15.40;99.90;;;;;;5045831;28;20059;-61
2022/05/15 06:26:32;;;;;;;2.22;1.30;;;15.40;99.90;;;;;;5046047;28;20520;-60
2022/05/15 06:28:58;;;;;;;1.30;1.15;;;15.40;99.90;;;;;;5045739;28;20180;-61
2022/05/15 06:31:25;;;;;;;2.10;1.35;;;15.40;99.90;;;;;;5045700;28;20056;-61
2022/05/15 06:33:52;;;;;;;3.03;1.98;;;15.50;99.90;;;;;;5044020;28;20053;-61
2022/05/15 06:36:18;;;;;;;2.60;1.80;;;15.50;99.90;;;;;;5045359;28;20476;-57
2022/05/15 06:38:45;;;;;;;3.45;1.95;;;15.50;99.90;;;;;;5045596;28;20053;-61
2022/05/15 06:41:12;;;;;;;2.83;1.50;;;15.50;99.90;;;;;;5045457;28;20166;-61
2022/05/15 06:43:39;;;;;;;2.60;1.90;;;15.60;99.90;;;;;;5044510;28;20386;-61
2022/05/15 06:46:05;;;;;;;3.60;2.22;;;15.60;99.90;;;;;;5027827;28;20128;-61
2022/05/15 06:48:35;;;;;;;2.53;1.65;;;15.70;99.90;;;;;;5044042;28;20072;-60
2022/05/15 06:51:03;;;;;;;4.95;2.03;;;15.80;99.90;;;;;;5043762;28;20392;-61
2022/05/15 06:53:30;;;;;;;3.40;2.05;;;15.90;99.90;;;;;;5040903;28;20143;-60
2022/05/15 06:58:41;;;;;;;4.25;2.10;;;16.10;99.90;;;;;;5047561;28;20140;-60
2022/05/15 07:01:08;;;;;;;4.53;2.30;;;16.30;99.90;;;;;;5047294;28;20160;-60
2022/05/15 07:03:35;;;;;;;4.78;2.40;;;16.30;99.90;;;;;;5032075;28;20136;-60
2022/05/15 07:06:02;;;;;;;3.97;2.50;;;16.30;99.90;;;;;;5031195;28;20161;-61
2022/05/15 07:08:29;;;;;;;3.80;2.70;;;16.40;99.90;;;;;;5029288;28;20076;-61
2022/05/15 07:10:55;;;;;;;5.85;3.15;;;16.50;99.90;;;;;;5037761;28;20060;-60
2022/05/15 07:13:22;;;;;;;4.97;2.65;;;16.50;99.90;;;;;;5036178;28;20049;-60
2022/05/15 07:15:49;;;;;;;4.45;3.00;;;16.50;99.90;;;;;;5030705;28;20099;-60
2022/05/15 07:18:16;;;;;;;5.85;3.10;;;16.60;99.90;;;;;;5030743;28;20164;-60
2022/05/15 07:20:43;;;;;;;4.03;2.40;;;16.70;99.90;;;;;;5027846;28;20113;-61
2022/05/15 07:23:09;;;;;;;3.95;2.60;;;16.80;99.90;;;;;;5039347;28;20053;-60
2022/05/15 07:25:36;;;;;;;4.00;2.53;;;16.90;99.90;;;;;;5041942;28;20544;-63
2022/05/15 07:28:03;;;;;;;3.20;2.50;;;17.00;99.90;;;;;;5042697;28;20155;-62
2022/05/15 07:30:30;;;;;;;3.35;2.47;;;17.10;99.90;;;;;;5041893;28;20052;-63
2022/05/15 07:32:56;;;;;;;3.17;2.20;;;17.20;99.90;;;;;;5039077;28;20049;-64
2022/05/15 07:35:23;;;;;;;3.88;2.47;;;17.30;99.90;;;;;;5042875;28;20071;-62
2022/05/15 07:37:53;;;;;;;3.80;2.70;;;17.40;99.90;;;;;;5044407;28;20052;-63
2022/05/15 07:40:20;;;;;;;4.82;2.95;;;17.50;99.90;;;;;;5045849;28;20613;-61
2022/05/15 07:42:47;;;;;;;4.07;3.08;;;17.50;99.90;;;;;;5045821;28;20079;-61
2022/05/15 07:45:14;;;;;;;3.47;2.38;;;17.50;99.90;;;;;;5045444;28;20045;-59
2022/05/15 07:47:41;;;;;;;2.83;2.40;;;17.60;99.90;;;;;;5046203;28;20041;-61
2022/05/15 07:50:09;;;;;;;5.35;3.67;;;17.50;99.90;;;;;;5044369;28;20044;-61
2022/05/15 07:52:35;;;;;;;6.93;3.42;;;17.40;99.90;;;;;;5044992;28;20084;-61
2022/05/15 07:55:09;;;;;;;6.10;3.78;;;17.40;99.90;;;;;;5045328;28;20052;-61
2022/05/15 07:57:36;;;;;;;4.32;3.22;;;17.40;99.90;;;;;;5045433;28;20192;-61
2022/05/15 08:00:05;;;;;;;6.75;3.20;;;17.40;99.90;;;;;;5045184;28;20563;-61
2022/05/15 08:02:32;;;;;;;5.43;3.45;;;17.40;99.90;;;;;;5045771;28;20080;-60
2022/05/15 08:08:02;;;;;;;7.78;4.05;;;17.30;99.90;;;;;;5047416;28;20132;-61
2022/05/15 08:10:32;;;;;;;4.15;3.13;;;17.30;99.90;;;;;;5046476;28;20470;-61
2022/05/15 08:12:59;;;;;;;4.22;3.08;;;17.20;99.90;;;;;;5046610;28;20048;-61
2022/05/15 08:15:26;;;;;;;5.15;3.63;;;17.20;99.90;;;;;;5045946;28;20149;-61
2022/05/15 08:17:54;;;;;;;5.85;3.30;;;17.20;99.90;;;;;;5046761;28;20100;-61
2022/05/15 08:25:51;;;;;;;3.97;2.80;;;17.40;99.90;;;;;;5044989;28;20135;-61
2022/05/15 08:28:18;;;;;;;4.22;2.85;;;17.40;99.90;;;;;;5044678;28;20467;-61
2022/05/15 08:30:45;;;;;;;3.00;2.40;;;17.40;99.90;;;;;;5044177;28;20539;-59
2022/05/15 08:33:12;;;;;;;3.75;2.58;;;17.50;99.90;;;;;;5044436;28;20056;-61
2022/05/15 08:35:39;;;;;;;3.38;2.53;;;17.50;99.90;;;;;;5043824;28;20753;-61
2022/05/15 08:38:05;;;;;;;4.10;2.85;;;17.60;99.90;;;;;;5045367;28;20088;-61
2022/05/15 08:40:57;;;;;;;3.92;3.20;;;17.60;99.90;;;;;;5046323;28;20127;-61
2022/05/15 08:43:47;;;;;;;4.72;2.90;;;17.70;99.90;;;;;;5027939;28;20159;-61
2022/05/15 08:46:29;;;;;;;3.85;2.67;;;17.90;99.90;;;;;;5030782;28;20440;-61
2022/05/15 08:49:02;;;;;;;3.05;2.05;;;18.10;99.90;;;;;;5044905;28;20172;-60
2022/05/15 08:51:28;;;;;;;;;;;18.20;99.90;;;;;;5028541;28;20048;-61
2022/05/15 08:53:55;;;;;;;3.70;2.38;;;18.40;99.90;;;;;;5045375;28;20019;-62
2022/05/15 08:56:22;;;;;;;3.75;2.08;;;18.40;99.90;;;;;;5028326;28;20552;-61
2022/05/15 08:58:50;;;;;;;2.92;2.00;;;18.50;99.90;;;;;;5027982;28;20211;-61
2022/05/15 09:01:25;;;;;;;4.32;2.33;;;18.60;99.90;;;;;;5027938;28;20489;-61
2022/05/15 09:03:51;;;;;;;3.10;2.15;;;18.70;99.90;;;;;;5026396;28;20759;-61
2022/05/15 09:06:30;;;;;;;3.10;2.00;;;18.90;99.90;;;;;;5045867;28;20171;-61
2022/05/15 09:09:20;;;;;;;3.05;1.90;;;19.10;99.90;;;;;;5046014;28;20085;-61
2022/05/15 09:12:03;;;;;;;3.00;1.92;;;19.40;99.90;;;;;;5046118;28;20063;-61
2022/05/15 09:14:39;;;;;;;3.97;2.23;;;19.50;99.90;;;;;;5044845;28;20055;-62
2022/05/15 09:17:27;;;;;;;3.13;2.03;;;19.60;99.90;;;;;;5027738;28;20214;-62
2022/05/15 09:20:00;;;;;;;2.65;1.90;;;19.60;99.90;;;;;;5027349;28;20076;-61
2022/05/15 09:22:28;;;;;;;;;;;19.80;99.90;;;;;;5046400;28;20134;-61
2022/05/15 09:24:55;;;;;;;2.58;1.73;;;19.80;99.90;;;;;;5044990;28;19959;-62
2022/05/15 09:27:23;;;;;;;2.97;1.83;;;19.90;99.90;;;;;;5028126;28;20162;-61
2022/05/15 09:29:58;;;;;;;4.32;2.40;;;19.90;99.90;;;;;;5044898;28;20133;-62
2022/05/15 09:32:27;;;;;;;3.53;2.10;;;19.90;99.90;;;;;;5022652;28;20471;-61
2022/05/15 09:34:56;;;;;;;3.58;2.40;;;19.90;99.90;;;;;;5039561;28;20140;-61
2022/05/15 09:40:41;;;;;;;3.10;1.90;;;20.10;99.90;;;;;;5045230;28;20131;-60
2022/05/15 09:43:31;;;;;;;3.25;2.38;;;20.10;99.90;;;;;;5044954;28;20059;-63
2022/05/15 09:46:05;;;;;;;3.15;2.35;;;20.00;99.90;;;;;;5045235;28;20083;-62
2022/05/15 09:48:36;;;;;;;4.65;2.22;;;19.90;99.90;;;;;;5027347;28;20049;-61
2022/05/15 09:51:03;;;;;;;4.35;2.75;;;19.60;99.90;;;;;;5027969;28;20112;-61
2022/05/15 09:53:43;;;;;;;4.63;2.70;;;19.50;99.90;;;;;;5045086;28;20059;-61
2022/05/15 09:56:31;;;;;;;3.63;2.17;;;19.40;99.90;;;;;;5027111;28;20053;-61
2022/05/15 09:59:14;;;;;;;3.58;2.65;;;19.30;99.90;;;;;;5044638;28;20506;-60
2022/05/15 10:01:56;;;;;;;3.42;2.30;;;19.10;99.90;;;;;;5027872;28;20097;-61
2022/05/15 10:04:28;;;;;;;3.85;2.55;;;19.00;99.90;;;;;;5034491;28;20091;-61
2022/05/15 10:06:57;;;;;;;2.67;2.08;;;18.90;99.90;;;;;;5012722;28;20160;-59
2022/05/15 10:09:25;;;;;;;4.35;2.40;;;18.90;99.90;;;;;;5030555;28;20469;-60
2022/05/15 10:12:06;;;;;;;3.10;2.25;;;18.90;99.90;;;;;;5039594;28;20049;-60
2022/05/15 10:14:44;;;;;;;4.05;2.25;;;18.90;99.90;;;;;;5020723;28;20049;-61
2022/05/15 10:17:12;;;;;;;3.35;2.03;;;18.90;99.90;;;;;;5021484;28;20056;-60
2022/05/15 10:20:02;;;;;;;2.60;1.85;;;18.90;99.90;;;;;;5038135;28;20064;-60
2022/05/15 10:22:45;;;;;;;2.88;1.90;;;18.90;99.90;;;;;;5021247;28;20771;-60
2022/05/15 10:25:38;;;;;;;3.17;1.83;;;18.80;99.90;;;;;;5022495;28;20470;-62
2022/05/15 10:28:28;;;;;;;2.90;1.80;;;18.70;99.90;;;;;;5008772;28;20473;-60
2022/05/15 10:31:01;;;;;;;3.05;2.20;;;18.60;99.90;;;;;;5021465;28;20938;-60
2022/05/15 10:33:37;;;;;;;3.42;2.17;;;18.50;99.90;;;;;;5029887;28;20556;-61
2022/05/15 10:36:43;;;;;;;4.00;2.25;;;18.50;99.90;;;;;;5025863;28;20128;-61
2022/05/15 10:39:34;;;;;;;2.75;1.98;;;18.50;99.90;;;;;;5005771;28;20076;-60
2022/05/15 10:42:23;;;;;;;2.30;1.48;;;18.50;99.90;;;;;;5044995;28;20076;-62
2022/05/15 10:44:57;;;;;;;3.50;2.28;;;18.50;99.90;;;;;;5028238;28;20048;-61
2022/05/15 10:47:30;;;;;;;2.35;1.58;;;18.50;99.90;;;;;;5031673;28;20084;-61
2022/05/15 10:49:56;;;;;;;2.50;1.90;;;18.50;99.90;;;;;;5029435;28;20111;-62
2022/05/15 10:52:33;;;;;;;2.78;2.10;;;18.50;99.90;;;;;;5047909;28;20056;-61
2022/05/15 10:58:16;;;;;;;2.45;2.13;;;18.50;99.90;;;;;;5033291;28;20166;-62
2022/05/15 11:01:07;;;;;;;3.42;2.28;;;18.50;99.90;;;;;;5046947;28;20428;-61
2022/05/15 11:03:50;;;;;;;2.10;1.70;;;18.50;99.90;;;;;;5044281;28;20056;-60
2022/05/15 11:06:52;;;;;;;;;;;18.50;99.90;;;;;;5028282;28;20393;-61
2022/05/15 11:09:34;;;;;;;2.55;1.80;;;18.50;99.90;;;;;;4985604;28;20017;-64
2022/05/15 11:12:13;;;;;;;2.10;1.90;;;18.50;99.90;;;;;;5025994;28;20045;-61
2022/05/15 11:15:16;;;;;;;2.22;1.67;;;18.50;99.90;;;;;;5046816;28;20148;-61
2022/05/15 11:17:52;;;;;;;3.83;1.88;;;18.50;99.90;;;;;;5030625;28;20060;-61
2022/05/15 11:20:28;;;;;;;3.63;1.60;;;18.40;99.90;;;;;;5037864;28;20135;-60
2022/05/15 11:23:03;;;;;;;2.70;1.67;;;18.40;99.90;;;;;;5021351;28;20215;-61
2022/05/15 11:25:41;;;;;;;3.25;2.10;;;18.30;99.90;;;;;;5021601;28;20472;-61
2022/05/15 11:28:32;;;;;;;4.10;2.00;;;18.00;99.90;;;;;;5042530;28;20135;-60
2022/05/15 11:31:04;;;;;;;2.95;2.20;;;17.90;99.90;;;;;;5040718;28;20132;-61
2022/05/15 11:33:36;;;;;;;3.45;2.53;;;17.70;99.90;;;;;;5036314;28;20092;-61
2022/05/15 11:36:21;;;;;;;2.92;2.22;;;17.60;99.90;;;;;;5016715;28;20540;-61
2022/05/15 11:38:54;;;;;;;3.85;1.90;;;17.50;99.90;;;;;;5022078;28;20580;-62
2022/05/15 11:41:35;;;;;;;3.00;2.55;;;17.50;99.90;;;;;;5022633;28;20156;-61
2022/05/15 11:44:14;;;;;;;4.15;2.45;;;17.40;99.90;;;;;;5031647;28;20055;-60
2022/05/15 11:46:47;;;;;;;3.53;2.45;;;17.40;99.90;;;;;;5041731;28;20048;-59
2022/05/15 11:49:14;;;;;;;;;;;17.30;99.90;;;;;;5041684;28;20147;-61
2022/05/15 11:51:42;;;;;;;3.45;2.15;;;17.20;99.90;;;;;;5041653;28;20015;-61
2022/05/15 11:54:10;;;;;;;2.50;1.55;;;17.30;99.90;;;;;;5023733;28;20156;-61
2022/05/15 11:56:41;;;;;;;1.73;1.40;;;17.40;99.90;;;;;;5037694;28;20105;-61
2022/05/15 11:59:27;;;;;;;3.10;1.83;;;17.50;99.90;;;;;;5021254;28;20053;-60
2022/05/15 12:02:01;;;;;;;2.88;1.80;;;17.70;99.90;;;;;;5020220;28;20172;-60
2022/05/15 12:04:33;;;;;;;1.75;1.30;;;17.80;99.90;;;;;;5016439;28;20053;-61
2022/05/15 12:07:00;;;;;;;1.80;1.40;;;17.90;99.90;;;;;;5005084;28;20046;-60
2022/05/15 12:09:39;;;;;;;1.75;1.27;;;17.90;99.90;;;;;;5010965;28;20063;-61
2022/05/15 12:12:27;;;;;;;1.95;1.40;;;18.00;99.90;;;;;;5001590;28;20085;-61
2022/05/15 12:15:10;;;;;;;2.05;1.48;;;18.00;99.90;;;;;;5017838;28;20046;-61
2022/05/15 12:17:39;;;;;;;1.85;1.05;;;18.00;99.90;;;;;;5021226;28;20196;-61
2022/05/15 12:20:16;;;;;;;1.90;1.30;;;18.00;99.90;;;;;;5020326;28;20126;-59
2022/05/15 12:22:54;;;;;;;1.55;1.27;;;18.10;99.90;;;;;;5021389;28;20067;-61
2022/05/15 12:25:44;;;;;;;1.73;1.00;;;18.20;99.90;;;;;;5016459;28;20132;-61
2022/05/15 12:28:50;;;;;;;1.25;0.90;;;18.30;99.90;;;;;;5019854;28;20479;-60
2022/05/15 12:31:33;;;;;;;0.77;0.77;;;18.40;99.90;;;;;;5020155;28;20145;-60
2022/05/15 12:34:32;;;;;;;0.90;0.82;;;18.50;99.90;;;;;;5019084;28;20088;-61
2022/05/15 12:37:07;;;;;;;1.08;0.90;;;18.60;99.90;;;;;;5005794;28;20134;-61
2022/05/15 12:39:39;;;;;;;1.05;0.93;;;18.60;99.90;;;;;;5001513;28;20049;-61
2022/05/15 12:42:15;;;;;;;1.17;0.77;;;18.60;99.90;;;;;;5008717;28;20071;-61
2022/05/15 12:45:00;;;;;;;1.10;0.82;;;18.60;99.90;;;;;;5008452;28;20076;-62
2022/05/15 12:47:32;;;;;;;1.20;1.00;;;18.60;99.90;;;;;;5015309;28;20059;-63
2022/05/15 12:50:19;;;;;;;1.10;0.85;;;18.50;99.90;;;;;;5019999;28;20119;-62
2022/05/15 12:52:52;;;;;;;1.50;0.80;;;18.50;99.90;;;;;;5020762;28;20116;-62
2022/05/15 12:55:35;;;;;;;2.00;0.95;;;18.50;99.90;;;;;;5020455;28;20053;-62
2022/05/15 12:58:05;;;;;;;2.30;1.10;;;18.40;99.90;;;;;;5017559;28;20497;-61
2022/05/15 13:00:42;;;;;;;1.13;0.90;;;18.30;99.90;;;;;;5020064;28;20056;-61
2022/05/15 13:03:10;;;;;;;1.40;1.00;;;18.20;99.90;;;;;;5020222;28;20073;-60
2022/05/15 13:05:52;;;;;;;2.05;1.35;;;18.20;99.90;;;;;;5018425;28;20152;-63
2022/05/15 13:08:19;;;;;;;1.93;1.50;;;18.10;99.90;;;;;;5019950;28;20176;-61
2022/05/15 13:10:58;;;;;;;2.28;1.17;;;18.10;99.90;;;;;;5011190;28;20050;-60
2022/05/15 13:13:30;;;;;;;2.28;1.27;;;18.00;99.90;;;;;;5008332;28;20124;-64
2022/05/15 13:15:57;;;;;;;1.27;1.10;;;18.00;99.90;;;;;;5008288;28;20128;-63
2022/05/15 13:18:26;;;;;;;1.98;1.35;;;18.00;99.90;;;;;;5019110;28;20136;-63
2022/05/15 13:21:01;;;;;;;1.95;1.17;;;18.00;99.90;;;;;;5019837;28;20059;-63
2022/05/15 13:23:33;;;;;;;1.80;1.50;;;18.10;99.90;;;;;;5030907;28;20057;-63
2022/05/15 13:26:00;;;;;;;1.87;1.50;;;18.10;99.90;;;;;;4994124;28;20049;-61
2022/05/15 13:28:27;;;;;;;2.40;1.60;;;18.10;99.90;;;;;;5008363;28;20140;-60
2022/05/15 13:30:54;;;;;;;3.28;1.75;;;18.10;99.90;;;;;;5014240;28;20127;-61